Time;durP1;ratioP1;P1;durP2;ratioP2;P2;SDS_P1;SDS_P2;PMS_P1;PMS_P2;Temp;Humidity;BMP_temperature;BMP_pressure;BME280_temperature;BME280_humidity;BME280_pressure;Samples;Min_cycle;Max_cycle;Signal;HPM_P1;HPM_P2
2021/05/10 00:09:43;;;;;;;2.67;2.10;;;;;;;11.68;70.99;100445.94;20821503;28;20680;-65
2021/05/10 00:19:44;;;;;;;4.87;2.23;;;;;;;11.53;70.97;100445.97;20851924;28;20678;-59
2021/05/10 00:39:45;;;;;;;3.30;2.80;;;;;;;11.14;73.80;100454.78;21024123;27;20632;-59
2021/05/10 00:49:45;;;;;;;2.50;1.97;;;;;;;10.96;74.34;100447.97;21038772;27;20304;-59
2021/05/10 00:59:49;;;;;;;2.20;2.00;;;;;;;10.75;75.01;100449.28;21023045;27;20304;-60
2021/05/10 01:09:50;;;;;;;3.53;2.77;;;;;;;10.51;76.00;100451.69;21054931;27;20236;-59
2021/05/10 01:19:50;;;;;;;3.10;2.80;;;;;;;10.44;76.48;100445.88;21051266;27;20228;-61
2021/05/10 01:29:51;;;;;;;2.80;2.50;;;;;;;10.13;78.63;100450.50;21024899;27;20216;-59
2021/05/10 01:39:51;;;;;;;4.03;2.90;;;;;;;9.96;78.87;100449.69;21033196;27;20228;-59
2021/05/10 01:49:52;;;;;;;2.60;2.40;;;;;;;9.82;80.32;100456.78;20965592;27;20557;-58
2021/05/10 02:09:49;;;;;;;3.03;2.80;;;;;;;9.45;82.29;100469.56;20889083;27;20567;-59
2021/05/10 02:19:50;;;;;;;3.20;2.90;;;;;;;9.29;83.55;100466.94;20885085;28;20247;-58
2021/05/10 02:29:50;;;;;;;3.73;2.40;;;;;;;9.17;84.74;100474.75;20880171;28;20367;-59
2021/05/10 02:39:51;;;;;;;3.50;2.50;;;;;;;9.14;84.81;100480.25;20850972;28;20221;-59
2021/05/10 02:49:55;;;;;;;2.70;2.50;;;;;;;9.15;85.34;100479.31;20870594;28;20809;-58
2021/05/10 03:09:54;;;;;;;2.37;2.17;;;;;;;9.49;85.03;100481.78;20872194;27;20606;-59
2021/05/10 03:29:50;;;;;;;3.67;2.77;;;;;;;10.81;80.04;100505.84;21022426;27;20958;-59
2021/05/10 03:39:51;;;;;;;3.53;2.60;;;;;;;11.73;76.10;100515.97;21037084;28;20256;-62
2021/05/10 03:49:51;;;;;;;2.30;2.10;;;;;;;13.49;70.11;100525.13;21035025;28;20222;-61
2021/05/10 03:59:52;;;;;;;2.73;2.37;;;;;;;14.62;66.91;100536.22;21037604;28;20227;-63
2021/05/10 04:20:25;;;;;;;2.93;2.63;;;;;;;15.44;65.12;100535.06;20939994;28;20235;-61
2021/05/10 04:30:25;;;;;;;4.00;2.70;;;;;;;15.30;64.98;100537.16;20965527;28;20861;-61
2021/05/10 04:40:26;;;;;;;2.40;2.20;;;;;;;15.24;66.29;100530.41;20897289;28;20342;-63
2021/05/10 04:50:26;;;;;;;3.10;2.80;;;;;;;15.05;65.98;100527.50;20881962;28;20963;-64
2021/05/10 05:00:27;;;;;;;2.70;2.43;;;;;;;14.87;64.89;100532.47;20885852;28;20232;-60
2021/05/10 05:10:27;;;;;;;2.53;2.33;;;;;;;14.53;64.29;100514.59;20889396;28;20736;-70
2021/05/10 05:20:30;;;;;;;2.30;2.10;;;;;;;14.34;65.63;100528.56;20876993;28;20235;-59
2021/05/10 05:30:30;;;;;;;3.70;2.73;;;;;;;14.28;65.26;100531.72;20914896;28;20787;-59
2021/05/10 05:40:31;;;;;;;3.63;2.17;;;;;;;14.35;65.46;100533.81;20877660;28;20233;-58
2021/05/10 05:50:31;;;;;;;3.73;2.50;;;;;;;14.54;65.15;100533.28;20892099;28;20213;-62
2021/05/10 06:00:32;;;;;;;2.17;1.97;;;;;;;14.78;65.63;100517.09;20868972;28;20249;-60
2021/05/10 06:10:32;;;;;;;2.47;1.80;;;;;;;14.98;64.82;100520.88;20886887;28;20214;-62
2021/05/10 06:20:33;;;;;;;2.57;2.37;;;;;;;15.19;65.14;100524.56;20875284;28;20307;-59
2021/05/10 06:30:33;;;;;;;3.38;2.38;;;;;;;15.47;64.72;100517.78;20863122;28;20507;-60
2021/05/10 06:40:34;;;;;;;2.60;2.40;;;;;;;15.82;63.84;100517.63;20910567;28;21069;-59
2021/05/10 06:50:36;;;;;;;5.20;2.40;;;;;;;16.13;62.63;100518.63;20892783;28;20218;-58
2021/05/10 07:00:38;;;;;;;2.60;1.93;;;;;;;16.49;62.88;100517.31;20907144;28;20237;-60
2021/05/10 07:10:39;;;;;;;2.60;2.40;;;;;;;16.85;62.74;100518.72;20880339;28;20218;-66
2021/05/10 07:20:43;;;;;;;4.17;2.30;;;;;;;17.22;60.48;100510.94;20899190;28;20222;-62
2021/05/10 07:30:45;;;;;;;2.53;2.20;;;;;;;17.54;58.72;100483.75;20879505;28;20215;-62
2021/05/10 07:40:46;;;;;;;1.50;1.40;;;;;;;17.87;60.33;100506.88;20882663;28;21024;-61
2021/05/10 07:50:46;;;;;;;3.13;1.80;;;;;;;18.20;58.71;100502.88;20868720;28;20212;-65
2021/05/10 08:00:47;;;;;;;3.07;1.87;;;;;;;18.55;56.66;100494.16;20877671;28;20235;-63
2021/05/10 08:10:49;;;;;;;1.87;1.70;;;;;;;18.81;55.60;100479.06;20879256;28;20215;-66
2021/05/10 08:20:50;;;;;;;2.90;1.50;;;;;;;19.02;54.17;100468.84;20900106;28;20226;-61
2021/05/10 08:30:50;;;;;;;2.60;2.40;;;;;;;19.28;51.94;100484.41;20897285;28;20214;-62
2021/05/10 08:40:52;;;;;;;2.28;2.10;;;;;;;19.59;54.24;100472.25;20876057;28;20239;-61
2021/05/10 08:50:53;;;;;;;2.30;1.70;;;;;;;19.82;53.48;100467.25;20901509;28;20284;-61
2021/05/10 09:00:54;;;;;;;2.07;1.30;;;;;;;20.06;54.37;100469.34;20873828;28;20321;-60
2021/05/10 09:11:09;;;;;;;6.13;1.80;;;;;;;20.25;51.76;100447.50;20894263;28;20222;-60
2021/05/10 09:21:20;;;;;;;2.23;1.60;;;;;;;20.53;51.01;100467.19;20793540;28;20223;-61
2021/05/10 09:31:21;;;;;;;1.43;1.33;;;;;;;20.76;52.36;100454.84;20806512;28;20229;-64
2021/05/10 09:41:22;;;;;;;1.73;1.50;;;;;;;20.94;51.03;100443.03;20799486;28;20242;-63
2021/05/10 09:51:22;;;;;;;1.60;1.30;;;;;;;21.13;50.92;100437.38;20797703;28;20217;-61
2021/05/10 10:01:23;;;;;;;1.37;1.27;;;;;;;21.30;50.68;100428.28;20806093;28;20228;-61
2021/05/10 10:11:26;;;;;;;1.47;1.30;;;;;;;21.54;51.05;100425.63;20788429;28;20219;-60
2021/05/10 10:21:27;;;;;;;4.20;1.47;;;;;;;21.61;50.09;100414.97;20806086;28;20224;-60
2021/05/10 10:31:29;;;;;;;1.40;1.30;;;;;;;21.76;49.22;100426.84;20793666;28;20224;-58
2021/05/10 10:41:30;;;;;;;1.73;1.50;;;;;;;21.91;49.41;100427.03;20835912;28;20248;-60
2021/05/10 10:51:51;;;;;;;4.13;1.30;;;;;;;22.08;45.64;100428.78;20838972;28;20255;-60
2021/05/10 11:01:51;;;;;;;2.07;1.87;;;;;;;22.20;47.38;100430.16;20833659;28;20230;-60
2021/05/10 11:11:52;;;;;;;3.07;1.90;;;;;;;22.27;47.82;100390.38;20810385;28;20622;-61
2021/05/10 11:21:52;;;;;;;2.07;1.23;;;;;;;22.46;48.42;100407.34;20812509;28;20263;-59
2021/05/10 11:32:19;;;;;;;2.67;1.60;;;;;;;22.56;46.33;100395.25;20815100;28;20298;-64
2021/05/10 11:42:20;;;;;;;3.27;1.87;;;;;;;22.66;47.13;100378.72;20869624;28;20242;-60
2021/05/10 11:52:25;;;;;;;1.97;1.10;;;;;;;22.82;46.12;100361.53;20918973;28;20842;-61
2021/05/10 12:02:29;;;;;;;2.60;1.20;;;;;;;22.95;45.92;100356.34;20897508;28;20225;-68
2021/05/10 12:12:48;;;;;;;1.93;1.37;;;;;;;23.08;43.45;100329.41;20917409;28;20227;-59
2021/05/10 12:22:53;;;;;;;2.20;1.13;;;;;;;23.20;44.67;100343.44;20896717;28;20226;-59
2021/05/10 12:32:56;;;;;;;2.33;1.40;;;;;;;23.23;46.53;100349.41;20898850;28;20280;-59
2021/05/10 12:43:04;;;;;;;1.20;1.10;;;;;;;23.30;42.44;100339.50;20900300;28;20230;-58
2021/05/10 12:53:05;;;;;;;1.50;1.40;;;;;;;23.42;43.17;100320.00;20901409;28;20223;-58
2021/05/10 13:03:07;;;;;;;3.53;1.40;;;;;;;23.55;44.66;100342.06;20888657;28;20227;-58
2021/05/10 13:13:14;;;;;;;1.30;1.20;;;;;;;23.62;44.63;100332.13;20902208;28;20238;-59
2021/05/10 13:34:29;;;;;;;1.40;1.30;;;;;;;23.76;44.47;100309.53;20894227;28;20222;-59
2021/05/10 13:44:07;;;;;;;1.57;1.47;;;;;;;23.83;45.25;100317.81;20900765;28;21552;-64
2021/05/10 13:54:08;;;;;;;2.67;1.47;;;;;;;23.94;43.67;100301.00;20889149;28;20234;-61
2021/05/10 14:04:09;;;;;;;2.58;1.40;;;;;;;24.03;44.06;100306.19;20907658;28;20235;-66
2021/05/10 14:14:09;;;;;;;4.00;2.00;;;;;;;24.04;45.48;100305.16;20890499;28;20226;-61
2021/05/10 14:24:10;;;;;;;2.10;1.40;;;;;;;23.95;45.67;100298.09;20890207;28;20230;-54
2021/05/10 14:34:11;;;;;;;1.73;1.30;;;;;;;23.96;46.09;100286.19;20916502;28;20469;-59
2021/05/10 14:44:12;;;;;;;3.80;1.73;;;;;;;23.96;46.45;100280.72;20917559;28;20242;-54
2021/05/10 14:54:13;;;;;;;4.00;1.40;;;;;;;24.02;45.62;100262.78;20891251;28;21081;-54
2021/05/10 15:04:15;;;;;;;2.80;1.30;;;;;;;24.07;45.38;100260.31;20897204;28;20226;-59
2021/05/10 15:14:16;;;;;;;2.17;1.43;;;;;;;24.00;43.92;100260.25;20898403;28;21041;-54
2021/05/10 15:24:16;;;;;;;1.30;1.20;;;;;;;23.92;45.75;100254.84;20899546;28;20318;-54
2021/05/10 15:34:18;;;;;;;1.37;1.27;;;;;;;24.22;43.31;100257.59;20891552;28;20309;-60
2021/05/10 15:44:19;;;;;;;1.77;1.60;;;;;;;24.38;43.91;100268.38;20904387;28;20258;-61
2021/05/10 15:54:20;;;;;;;4.53;1.73;;;;;;;24.27;43.62;100250.56;20866309;28;20337;-64
2021/05/10 16:04:21;;;;;;;1.48;1.38;;;;;;;24.02;44.38;100280.00;20885374;28;20917;-61
2021/05/10 16:14:21;;;;;;;2.20;1.20;;;;;;;23.86;44.32;100280.16;20884528;28;20340;-60
2021/05/10 16:24:22;;;;;;;1.60;1.00;;;;;;;23.97;44.91;100292.47;20882191;28;20231;-61
2021/05/10 16:34:23;;;;;;;3.43;1.43;;;;;;;24.01;45.45;100293.81;20899623;28;20280;-61
2021/05/10 16:44:24;;;;;;;2.43;1.20;;;;;;;24.00;46.19;100286.66;20899645;28;21073;-61
2021/05/10 16:54:24;;;;;;;3.63;1.40;;;;;;;23.83;45.74;100288.69;20898195;28;20222;-61
2021/05/10 17:04:25;;;;;;;8.03;1.83;;;;;;;23.92;45.61;100293.00;20903057;28;20989;-61
2021/05/10 17:14:26;;;;;;;7.73;1.70;;;;;;;24.80;43.72;100297.66;20897990;28;20230;-62
2021/05/10 17:24:26;;;;;;;2.67;1.40;;;;;;;24.38;43.75;100298.38;20894698;28;20219;-59
2021/05/10 17:34:27;;;;;;;2.00;1.70;;;;;;;23.41;45.48;100293.81;20912653;28;20222;-60
2021/05/10 17:44:27;;;;;;;3.13;1.60;;;;;;;23.29;46.50;100299.69;20875296;28;20227;-59
2021/05/10 17:54:29;;;;;;;2.93;1.47;;;;;;;22.77;45.92;100304.91;20910581;28;20218;-59
2021/05/10 18:04:30;;;;;;;4.30;1.97;;;;;;;22.39;47.20;100320.16;20800332;28;20227;-61
2021/05/10 18:14:33;;;;;;;2.10;1.50;;;;;;;21.91;48.01;100329.22;20809681;28;20759;-60
2021/05/10 18:24:34;;;;;;;3.50;1.90;;;;;;;21.26;49.06;100328.34;20806046;28;20254;-62
2021/05/10 18:34:34;;;;;;;2.90;1.60;;;;;;;20.52;51.03;100339.97;20782721;28;20219;-61
2021/05/10 18:44:37;;;;;;;2.93;2.30;;;;;;;19.99;51.91;100335.53;20798382;28;20224;-61
2021/05/10 18:54:38;;;;;;;3.83;2.23;;;;;;;19.49;53.23;100333.44;20804738;28;20468;-61
2021/05/10 19:04:38;;;;;;;2.47;2.27;;;;;;;19.30;53.55;100345.25;20824185;28;20698;-71
2021/05/10 20:04:43;;;;;;;4.07;2.47;;;;;;;18.72;56.43;100352.84;20719774;28;20231;-64
2021/05/10 20:34:34;;;;;;;3.33;2.57;;;;;;;18.28;57.71;100354.44;20955576;27;20967;-60
2021/05/10 21:04:28;;;;;;;7.90;3.47;;;;;;;17.64;59.69;100377.56;20829080;27;20329;-63
2021/05/10 21:14:29;;;;;;;4.63;3.73;;;;;;;17.47;60.98;100362.06;20835806;28;20229;-64
2021/05/10 21:54:21;;;;;;;4.80;3.30;;;;;;;16.95;62.37;100357.00;21055623;27;20639;-62
2021/05/10 22:04:22;;;;;;;4.83;3.43;;;;;;;16.76;63.16;100347.91;21054275;28;20222;-60
2021/05/10 22:14:22;;;;;;;6.07;3.57;;;;;;;16.59;63.52;100340.41;21028869;28;20622;-59
2021/05/10 22:34:23;;;;;;;3.50;2.90;;;;;;;16.35;64.14;100338.06;20785938;28;20328;-60
2021/05/10 22:44:37;;;;;;;5.20;3.37;;;;;;;16.25;64.27;100341.69;20786572;28;20231;-60
2021/05/10 23:05:12;;;;;;;3.20;2.90;;;;;;;16.17;65.12;100340.53;20774667;28;20702;-60
2021/05/10 23:45:04;;;;;;;4.77;3.37;;;;;;;15.53;67.71;100344.31;21157587;27;832213;-60
